Terminal Aerodrome Forecast
Issued by NWS

Home | Current Version | Previous Version | Graphics & Text | Print | Product List | Glossary On
Versions: 1 2 3 4 5 6 7 8 9 10 11 12 13 14 15 16 17 18
000
FTUS43 KTOP 051732
TAFFOE
TAF
KFOE 051732Z 0518/0618 18014G22KT P6SM VCTS SCT035 BKN040CB
      TEMPO 0518/0519 VRB15G40KT
     FM060200 18012KT P6SM SCT200=

USA.gov is the U.S. government's official web portal to all federal, state and local government web resources and services.